Terminal Aerodrome Forecast
Issued by NWS Charleston, WV

Home | Current Version | Previous Version | Text Only | Print | Product List | Glossary On
Versions: 1 2 3 4 5 6 7 8 9 10 11 12 13 14 15 16 17 18 19 20 21 22 23
000
FTUS41 KRLX 281700 RRA
TAFCRW
TAF
KCRW 281744Z 2818/2918 23005KT P6SM SCT035 BKN050
      TEMPO 2818/2821 BKN035
     FM282300 18002KT P6SM BKN080
     FM290600 00000KT P6SM SCT080
     FM291300 18004KT P6SM SCT080
     FM291700 20008KT P6SM BKN080=

USA.gov is the U.S. government's official web portal to all federal, state and local government web resources and services.